createdAt,value
2023-04-17T00:01:41.301Z,5.14
2023-04-17T00:04:08.239Z,5.65
2023-04-17T00:06:34.978Z,5.98
2023-04-17T00:09:01.804Z,5.98
2023-04-17T00:11:28.318Z,6.19
2023-04-17T00:13:55.148Z,6.01
2023-04-17T00:16:21.809Z,5.93
2023-04-17T00:18:48.732Z,6.43
2023-04-17T00:21:15.330Z,6.88
2023-04-17T00:23:42.159Z,6.55
2023-04-17T00:26:08.726Z,6.29
2023-04-17T00:28:35.326Z,6.29
2023-04-17T00:31:01.959Z,6.55
2023-04-17T00:33:28.522Z,6.24
2023-04-17T00:35:55.828Z,6.63
2023-04-17T00:38:22.303Z,6.57
2023-04-17T00:40:49.427Z,6.43
2023-04-17T00:43:16.160Z,6.42
2023-04-17T00:45:42.799Z,6.75
2023-04-17T00:48:09.867Z,6.34
2023-04-17T00:50:36.379Z,7.04
2023-04-17T00:53:03.092Z,6.60
2023-04-17T00:55:29.659Z,6.15
2023-04-17T00:57:56.487Z,6.22
2023-04-17T01:00:23.065Z,5.74
2023-04-17T01:02:49.977Z,5.92
2023-04-17T01:05:17.734Z,6.06
2023-04-17T01:07:44.269Z,6.08
2023-04-17T01:10:10.808Z,5.97
2023-04-17T01:12:40.534Z,5.55
2023-04-17T01:15:07.074Z,5.83
2023-04-17T01:17:34.050Z,5.61
2023-04-17T01:20:00.742Z,5.78
2023-04-17T01:22:27.593Z,5.92
2023-04-17T01:24:54.834Z,5.99
2023-04-17T01:27:21.289Z,5.67
2023-04-17T01:29:47.900Z,5.79
2023-04-17T01:32:14.448Z,5.87
2023-04-17T01:34:41.328Z,5.75
2023-04-17T01:37:08.124Z,5.84
2023-04-17T01:39:35.018Z,5.98
2023-04-17T01:42:01.812Z,5.43
2023-04-17T01:44:28.408Z,3.67
2023-04-17T01:46:55.002Z,3.61
2023-04-17T01:49:21.588Z,3.57
2023-04-17T01:51:48.421Z,3.11
2023-04-17T01:54:14.953Z,3.25
2023-04-17T01:56:41.776Z,4.17
2023-04-17T01:59:08.385Z,3.81
2023-04-17T02:01:35.012Z,3.09
2023-04-17T02:04:01.757Z,2.99
2023-04-17T02:06:29.315Z,2.74
2023-04-17T02:08:56.077Z,2.93
2023-04-17T02:11:22.744Z,2.87
2023-04-17T02:13:50.137Z,2.70
2023-04-17T02:16:16.727Z,2.96
2023-04-17T02:18:43.582Z,3.04
2023-04-17T02:21:10.888Z,3.01
2023-04-17T02:23:45.024Z,2.77
2023-04-17T02:26:11.888Z,2.93
2023-04-17T02:28:38.699Z,2.92
2023-04-17T02:31:05.280Z,2.86
2023-04-17T02:33:31.926Z,2.75
2023-04-17T02:35:58.752Z,2.60
2023-04-17T02:38:25.259Z,2.89
2023-04-17T02:40:53.212Z,2.76
2023-04-17T02:43:19.771Z,2.80
2023-04-17T02:45:47.348Z,2.55
2023-04-17T02:48:14.868Z,2.60
2023-04-17T02:50:41.417Z,2.50
2023-04-17T02:53:08.248Z,2.55
2023-04-17T02:55:34.770Z,2.43
2023-04-17T02:58:01.462Z,2.48
2023-04-17T03:00:28.474Z,2.46
2023-04-17T03:02:55.041Z,2.22
2023-04-17T03:08:03.454Z,2.69
2023-04-17T03:10:30.244Z,2.90
2023-04-17T03:12:56.820Z,2.89
2023-04-17T03:15:24.393Z,2.98
2023-04-17T03:17:50.932Z,3.45
2023-04-17T03:20:17.460Z,3.92
2023-04-17T03:22:44.349Z,3.89
2023-04-17T03:25:10.849Z,4.13
2023-04-17T03:27:37.724Z,4.33
2023-04-17T03:30:04.646Z,4.19
2023-04-17T03:32:31.300Z,4.79
2023-04-17T03:34:57.814Z,4.48
2023-04-17T03:37:24.952Z,4.30
2023-04-17T03:39:51.433Z,4.61
2023-04-17T03:42:17.980Z,3.97
2023-04-17T03:44:44.550Z,4.39
2023-04-17T03:47:11.104Z,3.61
2023-04-17T03:49:38.994Z,3.19
2023-04-17T03:52:05.602Z,3.29
2023-04-17T03:54:33.413Z,3.55
2023-04-17T03:57:00.016Z,3.25
2023-04-17T03:59:27.413Z,3.43
2023-04-17T04:01:54.338Z,3.67
2023-04-17T04:04:21.759Z,4.08
2023-04-17T04:06:48.674Z,4.32
2023-04-17T04:09:15.234Z,4.28
2023-04-17T04:11:41.786Z,3.87
2023-04-17T04:14:08.301Z,4.26
2023-04-17T04:16:35.032Z,3.85
2023-04-17T04:19:01.709Z,4.22
2023-04-17T04:21:28.242Z,4.14
2023-04-17T04:23:55.116Z,4.05
2023-04-17T04:26:21.776Z,4.09
2023-04-17T04:28:48.297Z,3.78
2023-04-17T04:31:15.201Z,3.75
2023-04-17T04:33:43.793Z,3.66
2023-04-17T04:36:10.382Z,3.91
2023-04-17T04:38:37.225Z,3.49
2023-04-17T04:41:04.086Z,4.07
2023-04-17T04:43:30.760Z,4.22
2023-04-17T04:45:57.569Z,4.50
2023-04-17T04:48:24.250Z,5.87
2023-04-17T04:50:51.557Z,5.85
2023-04-17T04:53:18.520Z,5.80
2023-04-17T04:55:46.153Z,6.09
2023-04-17T04:58:12.783Z,5.64
2023-04-17T05:00:42.158Z,6.00
2023-04-17T05:03:08.873Z,6.77
2023-04-17T05:05:38.246Z,6.94
2023-04-17T05:08:05.406Z,6.77
2023-04-17T05:10:32.173Z,6.75
2023-04-17T05:12:58.747Z,6.94
2023-04-17T05:15:30.100Z,7.19
2023-04-17T05:17:56.983Z,6.66
2023-04-17T05:20:23.847Z,6.75
2023-04-17T05:22:50.470Z,6.94
2023-04-17T05:25:17.259Z,6.78
2023-04-17T05:27:46.484Z,6.95
2023-04-17T05:30:13.324Z,6.28
2023-04-17T05:32:40.747Z,6.25
2023-04-17T05:35:07.319Z,5.91
2023-04-17T05:37:34.273Z,5.36
2023-04-17T05:40:05.353Z,5.25
2023-04-17T05:42:32.082Z,5.01
2023-04-17T05:44:58.668Z,4.89
2023-04-17T05:47:32.526Z,5.23
2023-04-17T05:49:59.232Z,5.00
2023-04-17T05:52:26.170Z,5.02
2023-04-17T05:54:55.547Z,5.09
2023-04-17T05:57:25.514Z,5.03
2023-04-17T05:59:59.147Z,4.76
2023-04-17T06:02:26.173Z,4.75
2023-04-17T06:04:53.108Z,4.89
2023-04-17T06:07:20.368Z,4.80
2023-04-17T06:09:47.279Z,4.86
2023-04-17T06:12:14.166Z,4.47
2023-04-17T06:14:40.768Z,4.89
2023-04-17T06:17:07.596Z,4.63
2023-04-17T06:19:34.403Z,4.89
2023-04-17T06:22:00.966Z,4.75
2023-04-17T06:24:27.779Z,4.81
2023-04-17T06:26:54.377Z,5.23
2023-04-17T06:29:21.222Z,5.44
2023-04-17T06:31:47.857Z,5.36
2023-04-17T06:34:15.033Z,5.57
2023-04-17T06:36:41.545Z,5.20
2023-04-17T06:39:09.002Z,5.01
2023-04-17T06:41:35.856Z,4.68
2023-04-17T06:44:02.358Z,4.68
2023-04-17T06:46:29.251Z,4.62
2023-04-17T06:48:55.882Z,4.81
2023-04-17T06:51:22.805Z,4.61
2023-04-17T06:53:51.722Z,4.05
2023-04-17T06:56:18.223Z,4.34
2023-04-17T06:58:45.270Z,4.14
2023-04-17T07:01:14.507Z,3.92
2023-04-17T07:03:41.294Z,4.18
2023-04-17T07:06:08.395Z,4.37
2023-04-17T07:08:35.306Z,4.48
2023-04-17T07:11:02.209Z,3.89
2023-04-17T07:13:28.816Z,3.79
2023-04-17T07:15:55.983Z,3.51
2023-04-17T07:18:22.948Z,3.39
2023-04-17T07:20:49.752Z,3.34
2023-04-17T07:23:16.875Z,2.56
2023-04-17T07:25:43.368Z,2.74
2023-04-17T07:28:10.523Z,2.23
2023-04-17T07:30:36.963Z,2.03
2023-04-17T07:33:04.571Z,2.04
2023-04-17T07:35:31.771Z,1.98
2023-04-17T07:37:58.267Z,2.37
2023-04-17T07:40:25.080Z,1.93
2023-04-17T07:42:51.993Z,1.94
2023-04-17T07:45:18.560Z,1.88
2023-04-17T07:47:45.436Z,1.90
2023-04-17T07:50:12.266Z,1.79
2023-04-17T07:52:38.745Z,1.37
2023-04-17T07:55:05.701Z,1.33
2023-04-17T07:57:32.358Z,1.61
2023-04-17T07:59:59.184Z,1.57
2023-04-17T08:02:25.970Z,1.40
2023-04-17T08:04:52.801Z,1.69
2023-04-17T08:07:19.447Z,1.70
2023-04-17T08:09:48.431Z,1.93
2023-04-17T08:12:15.282Z,1.69
2023-04-17T08:14:41.841Z,1.97
2023-04-17T08:17:08.414Z,1.64
2023-04-17T08:19:34.918Z,1.52
2023-04-17T08:22:01.827Z,1.59
2023-04-17T08:24:28.722Z,1.54
2023-04-17T08:26:56.311Z,1.46
2023-04-17T08:29:23.203Z,1.27
2023-04-17T08:32:00.182Z,1.42
2023-04-17T08:34:38.323Z,1.45
2023-04-17T08:37:05.148Z,1.28
2023-04-17T08:39:32.682Z,1.44
2023-04-17T08:41:59.262Z,1.66
2023-04-17T08:44:25.901Z,1.43
2023-04-17T08:46:52.623Z,1.44
2023-04-17T08:49:19.355Z,1.27
2023-04-17T08:51:47.805Z,1.13
2023-04-17T08:54:14.579Z,0.86
2023-04-17T08:56:41.596Z,0.86
2023-04-17T08:59:10.826Z,1.32
2023-04-17T09:01:37.878Z,0.97
2023-04-17T09:04:05.339Z,1.07
2023-04-17T09:06:32.298Z,1.04
2023-04-17T09:08:58.923Z,1.13
2023-04-17T09:11:25.663Z,1.15
2023-04-17T09:13:52.482Z,1.05
2023-04-17T09:16:20.105Z,1.02
2023-04-17T09:18:46.929Z,0.87
2023-04-17T09:21:13.876Z,0.85
2023-04-17T09:23:40.453Z,0.87
2023-04-17T09:26:07.032Z,0.81
2023-04-17T09:28:33.516Z,0.87
2023-04-17T09:31:02.879Z,0.91
2023-04-17T09:33:29.531Z,1.31
2023-04-17T09:35:56.346Z,1.20
2023-04-17T09:38:23.188Z,1.19
2023-04-17T09:40:49.660Z,1.10
2023-04-17T09:43:16.269Z,1.16
2023-04-17T09:45:43.118Z,1.26
2023-04-17T09:48:09.880Z,1.11
2023-04-17T09:50:38.647Z,1.18
2023-04-17T09:53:05.691Z,1.00
2023-04-17T09:55:32.385Z,1.05
2023-04-17T09:57:58.981Z,1.11
2023-04-17T10:00:25.798Z,1.22
2023-04-17T10:02:52.468Z,1.34
2023-04-17T10:05:19.324Z,1.18
2023-04-17T10:07:46.114Z,1.24
2023-04-17T10:10:12.735Z,1.30
2023-04-17T10:12:39.334Z,1.42
2023-04-17T10:15:06.166Z,1.34
2023-04-17T10:17:32.988Z,1.34
2023-04-17T10:20:00.280Z,1.46
2023-04-17T10:22:27.136Z,1.60
2023-04-17T10:24:53.974Z,1.27
2023-04-17T10:27:20.439Z,1.36
2023-04-17T10:29:47.199Z,1.51
2023-04-17T10:32:13.828Z,1.65
2023-04-17T10:34:41.909Z,1.69
2023-04-17T10:37:10.382Z,1.43
2023-04-17T10:39:37.807Z,1.38
2023-04-17T10:42:04.405Z,1.43
2023-04-17T10:44:31.672Z,1.44
2023-04-17T10:46:58.487Z,1.73
2023-04-17T10:49:25.351Z,1.60
2023-04-17T10:51:52.123Z,1.89
2023-04-17T10:54:18.786Z,1.83
2023-04-17T10:56:45.249Z,1.79
2023-04-17T10:59:13.290Z,1.70
2023-04-17T11:01:40.219Z,1.76
2023-04-17T11:04:06.868Z,1.48
2023-04-17T11:06:41.667Z,1.64
2023-04-17T11:09:08.238Z,1.57
2023-04-17T11:11:44.107Z,1.89
2023-04-17T11:14:13.999Z,1.79
2023-04-17T11:16:41.156Z,1.74
2023-04-17T11:19:07.960Z,1.61
2023-04-17T11:21:35.442Z,1.52
2023-04-17T11:24:02.425Z,1.73
2023-04-17T11:29:19.552Z,1.79
2023-04-17T11:31:49.525Z,2.01
2023-04-17T11:34:16.196Z,1.63
2023-04-17T11:36:45.174Z,1.67
2023-04-17T11:39:12.124Z,1.68
2023-04-17T11:41:40.137Z,1.53
2023-04-17T11:44:06.930Z,1.44
2023-04-17T11:46:33.545Z,1.58
2023-04-17T11:49:00.216Z,1.67
2023-04-17T11:51:26.786Z,1.50
2023-04-17T11:53:53.626Z,1.24
2023-04-17T11:56:20.144Z,1.45
2023-04-17T11:58:46.620Z,1.39
2023-04-17T12:01:15.356Z,1.06
2023-04-17T12:03:45.317Z,1.37
2023-04-17T12:06:12.621Z,1.21
2023-04-17T12:08:46.382Z,1.22
2023-04-17T12:11:13.287Z,1.12
2023-04-17T12:13:40.746Z,1.28
2023-04-17T12:16:07.473Z,1.02
2023-04-17T12:18:33.947Z,1.18
2023-04-17T12:21:00.697Z,1.24
2023-04-17T12:23:28.248Z,1.10
2023-04-17T12:25:55.137Z,1.28
2023-04-17T12:28:22.151Z,1.47
2023-04-17T12:30:48.730Z,1.25
2023-04-17T12:33:15.483Z,1.23
2023-04-17T12:35:41.957Z,1.41
2023-04-17T12:38:10.402Z,1.28
2023-04-17T12:40:36.989Z,1.46
2023-04-17T12:43:04.598Z,1.25
2023-04-17T12:45:31.239Z,1.38
2023-04-17T12:47:58.064Z,1.54
2023-04-17T12:50:26.207Z,1.31
2023-04-17T12:52:53.002Z,1.46
2023-04-17T12:55:19.821Z,1.40
2023-04-17T12:57:46.329Z,1.38
2023-04-17T13:00:12.866Z,1.25
2023-04-17T13:02:39.628Z,1.32
2023-04-17T13:05:07.562Z,1.48
2023-04-17T13:07:34.291Z,1.42
2023-04-17T13:10:01.854Z,1.40
2023-04-17T13:12:30.554Z,1.49
2023-04-17T13:14:59.531Z,1.36
2023-04-17T13:17:28.638Z,1.37
2023-04-17T13:19:55.275Z,1.31
2023-04-17T13:22:22.725Z,1.19
2023-04-17T13:24:49.581Z,1.06
2023-04-17T13:27:16.423Z,1.32
2023-04-17T13:29:45.466Z,1.28
2023-04-17T13:32:12.427Z,1.36
2023-04-17T13:34:39.061Z,1.29
2023-04-17T13:37:05.671Z,1.34
2023-04-17T13:39:32.292Z,1.34
2023-04-17T13:41:59.834Z,1.55
2023-04-17T13:44:26.774Z,1.42
2023-04-17T13:46:53.354Z,1.53
2023-04-17T13:49:20.258Z,1.38
2023-04-17T13:51:47.958Z,1.45
2023-04-17T13:54:14.547Z,1.32
2023-04-17T13:56:41.839Z,1.44
2023-04-17T13:59:11.099Z,1.40
2023-04-17T14:01:39.032Z,1.81
2023-04-17T14:04:06.119Z,1.79
2023-04-17T14:06:33.077Z,1.72
2023-04-17T14:09:01.279Z,1.95
2023-04-17T14:11:27.846Z,2.09
2023-04-17T14:13:54.443Z,1.77
2023-04-17T14:16:22.076Z,1.96
2023-04-17T14:18:48.854Z,1.89
2023-04-17T14:21:15.355Z,2.18
2023-04-17T14:23:42.187Z,2.19
2023-04-17T14:26:10.875Z,2.02
2023-04-17T14:28:38.739Z,2.51
2023-04-17T14:31:05.356Z,2.51
2023-04-17T14:33:33.052Z,2.04
2023-04-17T14:35:59.615Z,2.27
2023-04-17T14:38:26.408Z,2.11
2023-04-17T14:40:52.938Z,2.26
2023-04-17T14:43:19.439Z,2.10
2023-04-17T14:45:46.041Z,2.30
2023-04-17T14:48:12.729Z,2.27
2023-04-17T14:50:39.642Z,2.66
2023-04-17T14:53:07.042Z,2.41
2023-04-17T14:55:33.588Z,2.12
2023-04-17T14:58:00.194Z,2.11
2023-04-17T15:00:27.550Z,2.72
2023-04-17T15:02:55.054Z,2.54
2023-04-17T15:08:17.819Z,2.26
2023-04-17T15:10:51.300Z,2.09
2023-04-17T15:13:18.264Z,2.18
2023-04-17T15:15:44.752Z,2.05
2023-04-17T15:18:11.329Z,1.97
2023-04-17T15:20:38.016Z,1.63
2023-04-17T15:23:04.665Z,1.68
2023-04-17T15:25:31.760Z,1.85
2023-04-17T15:28:00.288Z,1.74
2023-04-17T15:30:27.205Z,1.68
2023-04-17T15:32:57.714Z,1.81
2023-04-17T15:35:24.380Z,1.90
2023-04-17T15:37:51.110Z,1.72
2023-04-17T15:40:20.158Z,1.80
2023-04-17T15:42:46.710Z,1.84
2023-04-17T15:45:13.238Z,1.90
2023-04-17T15:47:39.753Z,1.83
2023-04-17T15:50:09.303Z,1.89
2023-04-17T15:52:36.122Z,1.90
2023-04-17T15:55:02.910Z,1.77
2023-04-17T15:57:29.484Z,1.55
2023-04-17T15:59:58.726Z,1.59
2023-04-17T16:02:25.544Z,1.98
2023-04-17T16:04:52.111Z,2.34
2023-04-17T16:07:18.902Z,2.28
2023-04-17T16:09:45.407Z,2.39
2023-04-17T16:12:12.354Z,2.18
2023-04-17T16:14:39.749Z,2.35
2023-04-17T16:17:06.501Z,2.23
2023-04-17T16:19:33.057Z,2.15
2023-04-17T16:21:59.922Z,2.05
2023-04-17T16:24:26.693Z,2.36
2023-04-17T16:26:53.290Z,2.23
2023-04-17T16:29:20.002Z,2.34
2023-04-17T16:31:46.930Z,2.37
2023-04-17T16:34:15.211Z,2.50
2023-04-17T16:36:45.424Z,2.45
2023-04-17T16:39:12.642Z,2.68
2023-04-17T16:41:39.480Z,2.20
2023-04-17T16:44:06.067Z,2.53
2023-04-17T16:46:45.683Z,2.48
2023-04-17T16:49:19.387Z,2.23
2023-04-17T16:51:48.363Z,2.48
2023-04-17T16:54:15.333Z,2.64
2023-04-17T16:56:45.849Z,2.75
2023-04-17T16:59:12.802Z,2.52
2023-04-17T17:01:39.558Z,2.81
2023-04-17T17:04:09.100Z,2.82
2023-04-17T17:06:35.873Z,2.83
2023-04-17T17:09:02.481Z,2.55
2023-04-17T17:11:28.962Z,2.43
2023-04-17T17:13:55.794Z,2.46
2023-04-17T17:16:22.667Z,2.24
2023-04-17T17:18:49.512Z,2.27
2023-04-17T17:21:17.025Z,2.28
2023-04-17T17:23:43.528Z,2.24
2023-04-17T17:26:10.069Z,2.20
2023-04-17T17:28:36.927Z,1.82
2023-04-17T17:31:03.789Z,1.97
2023-04-17T17:33:30.353Z,1.94
2023-04-17T17:35:59.358Z,2.11
2023-04-17T17:38:25.940Z,2.23
2023-04-17T17:40:52.499Z,2.18
2023-04-17T17:43:19.363Z,2.16
2023-04-17T17:45:48.541Z,2.19
2023-04-17T17:48:15.331Z,2.18
2023-04-17T17:50:42.202Z,2.15
2023-04-17T17:53:08.994Z,1.95
2023-04-17T17:55:35.603Z,2.02
2023-04-17T17:58:02.154Z,2.06
2023-04-17T18:00:28.657Z,1.81
2023-04-17T18:02:55.630Z,2.30
2023-04-17T18:05:22.353Z,2.38
2023-04-17T18:07:51.404Z,2.04
2023-04-17T18:10:18.262Z,2.17
2023-04-17T18:12:46.913Z,2.34
2023-04-17T18:15:13.430Z,2.39
2023-04-17T18:17:40.139Z,2.55
2023-04-17T18:20:07.986Z,2.48
2023-04-17T18:22:36.268Z,2.70
2023-04-17T18:25:03.702Z,3.16
2023-04-17T18:27:30.726Z,3.14
2023-04-17T18:29:57.554Z,3.12
2023-04-17T18:32:24.143Z,3.19
2023-04-17T18:34:50.823Z,3.24
2023-04-17T18:37:18.221Z,3.33
2023-04-17T18:39:45.002Z,2.98
2023-04-17T18:42:11.839Z,2.96
2023-04-17T18:44:38.467Z,2.97
2023-04-17T18:47:05.070Z,2.92
2023-04-17T18:49:31.598Z,3.14
2023-04-17T18:51:58.535Z,3.21
2023-04-17T18:54:25.813Z,3.06
2023-04-17T18:56:52.403Z,3.12
2023-04-17T18:59:18.982Z,3.31
2023-04-17T19:01:45.810Z,3.36
2023-04-17T19:04:12.564Z,3.42
2023-04-17T19:06:39.568Z,3.27
2023-04-17T19:09:06.183Z,3.60
2023-04-17T19:11:33.008Z,3.18
2023-04-17T19:13:59.519Z,3.50
2023-04-17T19:16:26.225Z,3.28
2023-04-17T19:18:53.562Z,3.19
2023-04-17T19:21:20.537Z,3.30
2023-04-17T19:23:47.403Z,3.60
2023-04-17T19:26:13.995Z,3.32
2023-04-17T19:28:40.624Z,3.27
2023-04-17T19:31:07.281Z,3.38
2023-04-17T19:33:39.776Z,3.34
2023-04-17T19:36:06.286Z,3.48
2023-04-17T19:38:32.869Z,3.80
2023-04-17T19:41:00.109Z,3.46
2023-04-17T19:43:27.708Z,3.72
2023-04-17T19:45:54.298Z,3.74
2023-04-17T19:48:21.105Z,3.77
2023-04-17T19:50:47.691Z,3.84
2023-04-17T19:53:14.502Z,4.14
2023-04-17T19:55:43.493Z,3.75
2023-04-17T19:58:10.049Z,3.62
2023-04-17T20:00:57.531Z,3.86
2023-04-17T20:03:24.339Z,3.86
2023-04-17T20:05:51.232Z,3.70
2023-04-17T20:08:17.888Z,4.00
2023-04-17T20:10:44.605Z,3.75
2023-04-17T20:13:13.244Z,3.77
2023-04-17T20:15:39.869Z,3.83
2023-04-17T20:18:06.745Z,3.95
2023-04-17T20:20:34.510Z,3.40
2023-04-17T20:23:03.622Z,3.92
2023-04-17T20:25:30.165Z,3.71
2023-04-17T20:27:56.996Z,3.96
2023-04-17T20:30:23.520Z,3.92
2023-04-17T20:32:50.413Z,3.84
2023-04-17T20:35:16.974Z,4.29
2023-04-17T20:37:44.383Z,4.25
2023-04-17T20:40:11.192Z,4.40
2023-04-17T20:42:37.798Z,4.23
2023-04-17T20:45:04.370Z,4.11
2023-04-17T20:47:33.317Z,3.99
2023-04-17T20:49:59.955Z,4.33
2023-04-17T20:52:26.540Z,4.23
2023-04-17T20:54:53.037Z,4.11
2023-04-17T20:57:19.618Z,4.41
2023-04-17T20:59:46.243Z,4.10
2023-04-17T21:02:13.943Z,4.43
2023-04-17T21:04:42.010Z,4.31
2023-04-17T21:07:08.935Z,4.49
2023-04-17T21:09:35.428Z,4.22
2023-04-17T21:12:02.232Z,4.55
2023-04-17T21:14:28.723Z,4.49
2023-04-17T21:16:55.277Z,5.03
2023-04-17T21:19:21.820Z,4.64
2023-04-17T21:21:48.641Z,5.43
2023-04-17T21:24:15.549Z,4.81
2023-04-17T21:26:42.038Z,4.88
2023-04-17T21:29:08.572Z,4.81
2023-04-17T21:31:35.209Z,4.69
2023-04-17T21:34:01.791Z,5.01
2023-04-17T21:36:30.379Z,4.99
2023-04-17T21:38:56.939Z,4.87
2023-04-17T21:41:24.221Z,4.97
2023-04-17T21:43:50.727Z,5.04
2023-04-17T21:46:17.391Z,4.92
2023-04-17T21:48:44.162Z,4.96
2023-04-17T21:51:10.933Z,4.84
2023-04-17T21:53:37.552Z,5.20
2023-04-17T21:56:06.733Z,5.30
2023-04-17T21:58:33.595Z,5.31
2023-04-17T22:01:00.231Z,5.80
2023-04-17T22:03:26.860Z,5.18
2023-04-17T22:05:53.672Z,5.20
2023-04-17T22:08:20.250Z,5.08
2023-04-17T22:10:46.835Z,5.22
2023-04-17T22:13:13.667Z,5.00
2023-04-17T22:15:40.514Z,5.18
2023-04-17T22:18:07.093Z,5.12
2023-04-17T22:20:33.621Z,5.47
2023-04-17T22:23:00.434Z,5.27
2023-04-17T22:25:27.273Z,5.21
2023-04-17T22:27:54.161Z,5.46
2023-04-17T22:30:20.970Z,5.29
2023-04-17T22:32:47.853Z,5.30
2023-04-17T22:35:14.399Z,5.11
2023-04-17T22:37:41.027Z,5.43
2023-04-17T22:40:07.898Z,5.44
2023-04-17T22:42:34.331Z,5.05
2023-04-17T22:45:01.142Z,5.23
2023-04-17T22:47:28.017Z,5.61
2023-04-17T22:49:55.629Z,5.26
2023-04-17T22:52:22.140Z,5.41
2023-04-17T22:54:49.048Z,5.67
2023-04-17T22:57:15.919Z,5.70
2023-04-17T22:59:42.424Z,5.61
2023-04-17T23:02:09.329Z,5.69
2023-04-17T23:04:36.361Z,5.45
2023-04-17T23:07:03.223Z,5.45
2023-04-17T23:09:29.831Z,5.48
2023-04-17T23:11:56.374Z,5.25
2023-04-17T23:14:23.206Z,5.31
2023-04-17T23:16:49.794Z,5.31
2023-04-17T23:19:16.488Z,5.44
2023-04-17T23:21:43.853Z,5.85
2023-04-17T23:24:10.336Z,5.42
2023-04-17T23:26:36.856Z,5.75
2023-04-17T23:29:03.432Z,5.25
2023-04-17T23:31:30.054Z,5.22
2023-04-17T23:33:57.100Z,5.59
2023-04-17T23:36:23.890Z,5.67
2023-04-17T23:38:50.393Z,5.69
2023-04-17T23:41:17.224Z,5.63
2023-04-17T23:43:43.831Z,5.88
2023-04-17T23:46:10.696Z,5.72
2023-04-17T23:48:38.402Z,5.53
2023-04-17T23:51:05.192Z,5.73
2023-04-17T23:53:31.969Z,5.89
2023-04-17T23:55:58.541Z,5.79
2023-04-17T23:58:25.325Z,5.61
